createdAt,value
2022-12-24T07:40:18.788Z,3.72
2022-12-24T07:42:45.436Z,8.55
2022-12-24T07:45:12.113Z,7.63
2022-12-24T07:47:45.036Z,8.50
2022-12-24T07:53:00.339Z,3.47
2022-12-24T07:55:27.011Z,3.15
2022-12-24T07:57:53.822Z,3.75
2022-12-24T08:05:12.460Z,3.67
2022-12-24T08:07:39.120Z,3.92
2022-12-24T08:13:52.758Z,3.15
2022-12-24T08:16:19.500Z,3.17
2022-12-24T08:18:46.267Z,3.10
2022-12-24T08:21:13.110Z,3.60
2022-12-24T08:26:10.698Z,3.30
2022-12-24T08:28:40.172Z,2.92
2022-12-24T08:31:06.961Z,3.30
2022-12-24T08:36:01.821Z,2.97
2022-12-24T08:38:28.524Z,2.80
2022-12-24T08:40:55.788Z,3.53
2022-12-24T08:43:22.778Z,2.97
2022-12-24T08:45:50.325Z,3.13
2022-12-24T08:48:17.571Z,3.35
2022-12-24T08:50:51.072Z,2.92
2022-12-24T08:53:17.663Z,3.63
2022-12-24T08:55:45.835Z,3.58
2022-12-24T08:58:14.473Z,3.97
2022-12-24T09:00:44.222Z,3.70
2022-12-24T09:03:15.004Z,4.20
2022-12-24T09:05:41.732Z,3.90
2022-12-24T09:08:08.341Z,2.90
2022-12-24T09:10:35.039Z,4.07
2022-12-24T09:13:01.691Z,4.10
2022-12-24T09:15:28.311Z,3.80
2022-12-24T09:17:55.035Z,3.45
2022-12-24T09:20:21.676Z,3.22
2022-12-24T09:22:48.281Z,3.45
2022-12-24T09:25:15.160Z,3.08
2022-12-24T09:30:09.113Z,4.10
2022-12-24T09:32:35.734Z,4.75
2022-12-24T09:35:02.374Z,3.92
2022-12-24T09:37:29.062Z,4.32
2022-12-24T09:39:55.777Z,4.53
2022-12-24T09:42:48.823Z,3.70
2022-12-24T09:45:29.637Z,4.55
2022-12-24T09:48:02.628Z,3.70
2022-12-24T09:50:29.250Z,3.92
2022-12-24T09:52:59.655Z,6.90
2022-12-24T09:55:34.156Z,5.93
2022-12-24T09:58:04.979Z,5.47
2022-12-24T10:00:37.482Z,6.60
2022-12-24T10:03:15.130Z,6.05
2022-12-24T10:05:53.665Z,5.50
2022-12-24T10:08:29.138Z,4.40
2022-12-24T10:11:06.520Z,4.80
2022-12-24T10:13:50.767Z,4.57
2022-12-24T10:16:49.717Z,4.97
2022-12-24T10:19:24.037Z,5.03
2022-12-24T10:22:06.376Z,4.68
2022-12-24T10:25:15.755Z,4.53
2022-12-24T10:27:45.306Z,3.90
2022-12-24T10:30:22.127Z,4.45
2022-12-24T10:32:51.277Z,4.15
2022-12-24T11:39:59.982Z,26.88
2022-12-24T11:42:34.689Z,25.15
2022-12-24T11:56:37.736Z,13.18
2022-12-24T11:59:36.979Z,3.88
2022-12-24T12:02:15.908Z,17.67
2022-12-24T12:04:46.732Z,23.80
2022-12-24T12:07:22.440Z,6.90
2022-12-24T12:10:00.818Z,8.93
2022-12-24T12:12:36.527Z,43.08
2022-12-24T12:15:25.717Z,8.82
2022-12-24T12:18:03.995Z,11.93
2022-12-24T12:21:03.876Z,8.68
2022-12-24T12:23:35.764Z,18.25
2022-12-24T12:26:21.097Z,21.98
2022-12-24T12:28:54.262Z,13.90
2022-12-24T12:31:45.187Z,12.73
2022-12-24T12:34:19.008Z,23.83
2022-12-24T12:37:03.676Z,8.95
2022-12-24T12:39:31.785Z,4.85
2022-12-24T12:42:37.315Z,5.55
2022-12-24T12:45:35.647Z,12.10
2022-12-24T12:48:11.067Z,5.00
2022-12-24T12:50:53.266Z,5.25
2022-12-24T12:53:43.150Z,9.15
2022-12-24T12:56:22.470Z,22.50
2022-12-24T12:58:58.976Z,12.02
2022-12-24T13:01:33.084Z,20.10
2022-12-24T13:04:33.752Z,33.42
2022-12-24T13:07:24.338Z,6.50
2022-12-24T13:10:06.169Z,10.45
2022-12-24T13:12:53.608Z,9.68
2022-12-24T13:15:35.138Z,18.20
2022-12-24T13:18:14.105Z,8.13
2022-12-24T13:20:49.648Z,10.07
2022-12-24T13:23:22.812Z,27.63
2022-12-24T13:25:57.764Z,31.15
2022-12-24T13:28:24.459Z,24.92
2022-12-24T13:31:01.924Z,21.67
2022-12-24T13:33:44.321Z,14.07
2022-12-24T13:36:19.612Z,9.05
2022-12-24T13:38:57.256Z,7.25
2022-12-24T13:41:40.006Z,7.72
2022-12-24T13:44:07.717Z,30.02
2022-12-24T13:47:00.022Z,28.13
2022-12-24T13:49:42.779Z,23.98
2022-12-24T13:52:12.001Z,25.60
2022-12-24T13:54:57.455Z,34.60
2022-12-24T13:57:43.020Z,5.53
2022-12-24T14:00:12.838Z,6.65
2022-12-24T14:03:01.719Z,9.55
2022-12-24T14:06:03.727Z,22.70
2022-12-24T14:08:44.214Z,29.50
2022-12-24T14:11:27.558Z,17.27
2022-12-24T14:14:10.672Z,26.90
2022-12-24T14:16:50.145Z,27.42
2022-12-24T14:19:38.699Z,21.15
2022-12-24T14:22:20.752Z,17.00
2022-12-24T14:25:12.701Z,23.70
2022-12-24T14:27:42.318Z,26.25
2022-12-24T14:30:29.318Z,7.97
2022-12-24T14:32:56.455Z,21.98
2022-12-24T14:35:29.602Z,24.60
2022-12-24T14:38:00.873Z,12.38
2022-12-24T14:40:53.730Z,7.68
2022-12-24T14:43:30.774Z,16.15
2022-12-24T14:46:05.171Z,10.52
2022-12-24T14:48:50.235Z,20.33
2022-12-24T14:51:35.915Z,9.32
2022-12-24T14:54:12.900Z,16.50
2022-12-24T14:56:39.810Z,5.60
2022-12-24T14:59:22.280Z,15.75
2022-12-24T15:01:58.492Z,16.02
2022-12-24T15:04:25.296Z,6.80
2022-12-24T15:06:54.698Z,9.93
2022-12-24T15:09:25.895Z,11.73
2022-12-24T15:11:56.535Z,15.07
2022-12-24T15:14:34.661Z,9.73
2022-12-24T15:17:07.503Z,12.82
2022-12-24T15:19:45.272Z,30.55
2022-12-24T15:22:23.827Z,7.10
2022-12-24T15:24:56.470Z,18.27
2022-12-24T15:27:26.752Z,7.28
2022-12-24T15:29:57.607Z,11.27
2022-12-24T15:32:24.425Z,11.18
2022-12-24T15:34:55.083Z,15.32
2022-12-24T15:37:26.283Z,15.25
2022-12-24T15:40:03.291Z,14.73
2022-12-24T15:42:32.856Z,12.75
2022-12-24T15:45:02.117Z,10.93
2022-12-24T15:47:40.362Z,10.18
2022-12-24T15:50:32.831Z,8.23
2022-12-24T15:53:18.785Z,9.35
2022-12-24T15:56:09.957Z,9.02
2022-12-24T15:58:39.879Z,8.00
2022-12-24T16:01:27.967Z,7.43
2022-12-24T16:03:57.390Z,9.95
2022-12-24T16:06:24.390Z,15.90
2022-12-24T16:08:51.969Z,10.10
2022-12-24T16:13:51.699Z,9.82
2022-12-24T16:16:22.626Z,8.52
2022-12-24T16:18:54.237Z,11.63
2022-12-24T16:21:25.963Z,24.83
2022-12-24T16:24:01.247Z,7.68
2022-12-24T16:26:33.888Z,9.70
2022-12-24T16:29:00.711Z,9.05
2022-12-24T16:31:39.066Z,10.75
2022-12-24T16:34:06.245Z,10.27
2022-12-24T16:36:33.178Z,8.65
2022-12-24T16:39:31.842Z,23.38
2022-12-24T16:42:19.974Z,30.25
2022-12-24T16:44:47.115Z,26.65
2022-12-24T16:47:25.864Z,36.20
2022-12-24T16:49:54.520Z,34.40
2022-12-24T16:52:28.935Z,28.58
2022-12-24T16:54:56.870Z,31.55
2022-12-24T16:57:26.556Z,31.33
2022-12-24T17:00:03.771Z,31.65
2022-12-24T17:02:30.631Z,32.30
2022-12-24T17:04:57.608Z,34.08
2022-12-24T17:07:24.263Z,41.00
2022-12-24T17:09:50.955Z,42.53
2022-12-24T17:12:18.078Z,36.95
2022-12-24T17:14:44.761Z,39.05
2022-12-24T17:17:23.968Z,38.58
2022-12-24T17:19:50.755Z,35.65
2022-12-24T17:22:17.696Z,38.67
2022-12-24T17:24:44.450Z,39.40
2022-12-24T17:27:11.117Z,45.97
2022-12-24T17:29:37.833Z,48.47
2022-12-24T17:32:11.699Z,41.65
2022-12-24T17:34:38.419Z,41.25
2022-12-24T17:37:05.617Z,46.60
2022-12-24T17:39:32.327Z,46.03
2022-12-24T17:41:59.035Z,42.80
2022-12-24T17:44:25.771Z,44.05
2022-12-24T17:46:52.782Z,43.40
2022-12-24T17:49:22.504Z,44.25
2022-12-24T17:51:54.680Z,43.88
2022-12-24T17:54:23.911Z,42.83
2022-12-24T17:56:50.685Z,37.63
2022-12-24T17:59:17.544Z,29.88
2022-12-24T18:01:44.307Z,32.88
2022-12-24T18:04:14.217Z,32.92
2022-12-24T18:06:47.277Z,31.20
2022-12-24T18:09:15.931Z,32.70
2022-12-24T18:11:42.754Z,37.47
2022-12-24T18:14:14.195Z,35.40
2022-12-24T18:16:41.868Z,48.60
2022-12-24T18:19:19.724Z,69.90
2022-12-24T18:21:55.828Z,73.55
2022-12-24T18:24:22.546Z,64.63
2022-12-24T18:26:49.183Z,57.38
2022-12-24T18:29:16.822Z,53.90
2022-12-24T18:34:14.099Z,53.33
2022-12-24T18:36:41.203Z,61.47
2022-12-24T18:39:07.919Z,56.78
2022-12-24T18:41:35.911Z,58.08
2022-12-24T18:44:02.772Z,55.33
2022-12-24T18:46:32.602Z,55.30
2022-12-24T18:49:00.728Z,49.75
2022-12-24T18:51:32.072Z,50.50
2022-12-24T18:53:58.830Z,27.85
2022-12-24T18:56:26.681Z,9.65
2022-12-24T18:58:56.213Z,7.97
2022-12-24T19:01:25.795Z,8.50
2022-12-24T19:03:52.903Z,8.55
2022-12-24T19:06:21.036Z,7.18
2022-12-24T19:08:59.023Z,14.10
2022-12-24T19:11:28.742Z,25.45
2022-12-24T19:13:55.563Z,23.50
2022-12-24T19:16:22.924Z,25.58
2022-12-24T19:18:49.947Z,26.25
2022-12-24T19:21:18.095Z,27.60
2022-12-24T19:23:46.236Z,25.55
2022-12-24T19:26:14.359Z,26.52
2022-12-24T19:28:42.059Z,28.65
2022-12-24T19:31:15.023Z,31.15
2022-12-24T19:34:00.383Z,8.68
2022-12-24T19:36:29.952Z,9.45
2022-12-24T19:38:58.386Z,7.68
2022-12-24T19:41:27.740Z,6.68
2022-12-24T19:43:57.896Z,8.07
2022-12-24T19:46:27.736Z,6.88
2022-12-24T19:49:00.288Z,6.68
2022-12-24T19:51:28.232Z,6.03
2022-12-24T19:53:59.712Z,5.90
2022-12-24T19:56:33.631Z,5.80
2022-12-24T19:59:02.119Z,6.43
2022-12-24T20:01:33.688Z,8.63
2022-12-24T20:04:04.072Z,24.65
2022-12-24T20:06:33.893Z,30.52
2022-12-24T20:09:05.278Z,30.35
2022-12-24T20:11:35.305Z,33.38
2022-12-24T20:14:03.772Z,35.70
2022-12-24T20:16:31.363Z,33.28
2022-12-24T20:21:31.254Z,8.38
2022-12-24T20:23:58.283Z,9.27
2022-12-24T20:26:29.805Z,8.52
2022-12-24T20:29:01.995Z,7.85
2022-12-24T20:31:32.911Z,7.60
2022-12-24T20:34:06.316Z,7.20
2022-12-24T20:36:33.831Z,5.82
2022-12-24T20:39:07.300Z,6.22
2022-12-24T20:41:34.598Z,5.35
2022-12-24T20:44:01.791Z,6.60
2022-12-24T20:46:29.244Z,5.88
2022-12-24T20:48:56.490Z,6.05
2022-12-24T20:51:28.866Z,6.90
2022-12-24T20:53:58.456Z,7.20
2022-12-24T20:56:26.199Z,8.95
2022-12-24T20:58:53.487Z,6.80
2022-12-24T21:01:25.646Z,7.60
2022-12-24T21:03:54.230Z,7.43
2022-12-24T21:06:23.455Z,7.55
2022-12-24T21:08:55.979Z,6.22
2022-12-24T21:11:44.215Z,22.27
2022-12-24T21:14:11.772Z,17.08
2022-12-24T21:16:39.261Z,18.52
2022-12-24T21:19:07.891Z,17.38
2022-12-24T21:21:37.074Z,17.75
2022-12-24T21:24:13.178Z,17.25
2022-12-24T21:26:40.062Z,15.32
2022-12-24T21:29:09.207Z,19.65
2022-12-24T21:31:37.215Z,33.67
2022-12-24T21:34:06.988Z,30.95
2022-12-24T21:36:33.707Z,26.25
2022-12-24T21:39:01.071Z,27.05
2022-12-24T21:41:28.176Z,22.85
2022-12-24T21:44:06.115Z,19.33
2022-12-24T21:46:33.180Z,17.33
2022-12-24T21:49:22.180Z,20.40
2022-12-24T21:51:49.155Z,20.73
2022-12-24T21:54:30.752Z,10.13
2022-12-24T21:57:19.537Z,12.95
2022-12-24T21:59:51.666Z,12.70
2022-12-24T22:02:20.107Z,10.82
2022-12-24T22:04:49.589Z,10.20
2022-12-24T22:07:43.688Z,8.15
2022-12-24T22:10:30.706Z,9.18
2022-12-24T22:12:59.843Z,8.07
2022-12-24T22:15:36.003Z,8.35
2022-12-24T22:18:03.378Z,9.05
2022-12-24T22:20:30.002Z,8.02
2022-12-24T22:22:56.663Z,8.05
2022-12-24T22:25:23.358Z,8.25
2022-12-24T22:27:50.038Z,8.25
2022-12-24T22:30:16.750Z,7.32
2022-12-24T22:32:50.147Z,6.43
2022-12-24T22:35:17.139Z,8.25
2022-12-24T22:37:47.891Z,12.48
2022-12-24T22:40:14.651Z,8.73
2022-12-24T22:42:44.029Z,7.80
2022-12-24T22:45:23.076Z,9.63
2022-12-24T22:47:49.955Z,6.85
2022-12-24T22:50:16.884Z,8.00
2022-12-24T22:52:43.573Z,7.63
2022-12-24T22:55:10.398Z,7.13
2022-12-24T22:57:37.042Z,8.25
2022-12-24T23:00:09.625Z,7.75
2022-12-24T23:02:46.133Z,6.90
2022-12-24T23:05:15.263Z,9.32
2022-12-24T23:07:42.260Z,7.93
2022-12-24T23:10:15.628Z,7.72
2022-12-24T23:13:03.276Z,8.18
2022-12-24T23:15:29.926Z,6.07
2022-12-24T23:17:57.035Z,6.10
2022-12-24T23:20:30.339Z,6.72
2022-12-24T23:22:57.016Z,6.25
2022-12-24T23:25:26.637Z,7.32
2022-12-24T23:27:54.538Z,6.30
2022-12-24T23:30:21.208Z,6.57
2022-12-24T23:32:47.836Z,5.47
2022-12-24T23:35:14.607Z,6.55
2022-12-24T23:37:47.474Z,9.90
2022-12-24T23:40:14.982Z,9.65
2022-12-24T23:42:41.793Z,6.50
2022-12-24T23:45:08.996Z,15.60
2022-12-24T23:47:35.912Z,6.35
2022-12-24T23:50:07.846Z,4.95
2022-12-24T23:52:34.510Z,5.43
2022-12-24T23:55:01.210Z,4.82
2022-12-24T23:57:30.529Z,10.18
2022-12-24T23:59:57.119Z,6.93
